sensor_id;sensor_type;location;lat;lon;timestamp;P1;durP1;ratioP1;P2;durP2;ratioP2
35518;SDS011;21627;48.216;16.482;2023-12-20T00:00:36;50.80;;;30.60;;
35518;SDS011;21627;48.216;16.482;2023-12-20T00:03:06;52.20;;;30.80;;
35518;SDS011;21627;48.216;16.482;2023-12-20T00:05:33;50.13;;;30.93;;
35518;SDS011;21627;48.216;16.482;2023-12-20T00:08:01;47.90;;;30.23;;
35518;SDS011;21627;48.216;16.482;2023-12-20T00:10:28;48.20;;;29.50;;
35518;SDS011;21627;48.216;16.482;2023-12-20T00:12:56;51.57;;;30.93;;
35518;SDS011;21627;48.216;16.482;2023-12-20T00:15:23;51.27;;;30.70;;
35518;SDS011;21627;48.216;16.482;2023-12-20T00:17:50;52.00;;;31.70;;
35518;SDS011;21627;48.216;16.482;2023-12-20T00:20:17;48.40;;;29.40;;
35518;SDS011;21627;48.216;16.482;2023-12-20T00:22:44;49.10;;;28.63;;
35518;SDS011;21627;48.216;16.482;2023-12-20T00:25:11;47.97;;;29.17;;
35518;SDS011;21627;48.216;16.482;2023-12-20T00:27:39;49.77;;;29.47;;
35518;SDS011;21627;48.216;16.482;2023-12-20T00:30:06;48.83;;;27.93;;
35518;SDS011;21627;48.216;16.482;2023-12-20T00:32:35;48.03;;;29.73;;
35518;SDS011;21627;48.216;16.482;2023-12-20T00:35:02;50.87;;;29.97;;
35518;SDS011;21627;48.216;16.482;2023-12-20T00:37:30;52.07;;;30.80;;
35518;SDS011;21627;48.216;16.482;2023-12-20T00:39:58;56.57;;;30.37;;
35518;SDS011;21627;48.216;16.482;2023-12-20T00:42:25;48.90;;;29.60;;
35518;SDS011;21627;48.216;16.482;2023-12-20T00:44:52;59.63;;;30.90;;
35518;SDS011;21627;48.216;16.482;2023-12-20T00:47:19;48.60;;;30.23;;
35518;SDS011;21627;48.216;16.482;2023-12-20T00:49:46;52.90;;;29.67;;
35518;SDS011;21627;48.216;16.482;2023-12-20T00:52:13;51.07;;;29.80;;
35518;SDS011;21627;48.216;16.482;2023-12-20T00:54:40;49.77;;;29.43;;
35518;SDS011;21627;48.216;16.482;2023-12-20T00:57:07;53.53;;;31.17;;
35518;SDS011;21627;48.216;16.482;2023-12-20T00:59:35;48.63;;;30.30;;
35518;SDS011;21627;48.216;16.482;2023-12-20T01:02:02;46.87;;;28.77;;
35518;SDS011;21627;48.216;16.482;2023-12-20T01:04:29;45.47;;;28.40;;
35518;SDS011;21627;48.216;16.482;2023-12-20T01:06:57;48.30;;;29.13;;
35518;SDS011;21627;48.216;16.482;2023-12-20T01:09:24;54.37;;;31.13;;
35518;SDS011;21627;48.216;16.482;2023-12-20T01:11:52;61.53;;;31.97;;
35518;SDS011;21627;48.216;16.482;2023-12-20T01:14:20;58.53;;;32.10;;
35518;SDS011;21627;48.216;16.482;2023-12-20T01:16:47;61.00;;;32.47;;
35518;SDS011;21627;48.216;16.482;2023-12-20T01:19:14;81.63;;;33.73;;
35518;SDS011;21627;48.216;16.482;2023-12-20T01:21:41;62.30;;;32.27;;
35518;SDS011;21627;48.216;16.482;2023-12-20T01:24:08;71.63;;;32.67;;
35518;SDS011;21627;48.216;16.482;2023-12-20T01:26:36;64.77;;;33.07;;
35518;SDS011;21627;48.216;16.482;2023-12-20T01:29:03;66.33;;;33.53;;
35518;SDS011;21627;48.216;16.482;2023-12-20T01:31:30;58.27;;;32.50;;
35518;SDS011;21627;48.216;16.482;2023-12-20T01:33:57;94.97;;;35.03;;
35518;SDS011;21627;48.216;16.482;2023-12-20T01:36:24;77.33;;;31.53;;
35518;SDS011;21627;48.216;16.482;2023-12-20T01:38:51;46.73;;;28.27;;
35518;SDS011;21627;48.216;16.482;2023-12-20T01:41:18;67.70;;;29.37;;
35518;SDS011;21627;48.216;16.482;2023-12-20T01:43:45;58.83;;;29.37;;
35518;SDS011;21627;48.216;16.482;2023-12-20T01:46:17;71.90;;;32.10;;
35518;SDS011;21627;48.216;16.482;2023-12-20T01:48:47;77.83;;;30.53;;
35518;SDS011;21627;48.216;16.482;2023-12-20T01:51:15;76.57;;;30.77;;
35518;SDS011;21627;48.216;16.482;2023-12-20T01:53:43;61.77;;;32.17;;
35518;SDS011;21627;48.216;16.482;2023-12-20T01:56:10;57.77;;;30.20;;
35518;SDS011;21627;48.216;16.482;2023-12-20T01:58:39;58.03;;;30.23;;
35518;SDS011;21627;48.216;16.482;2023-12-20T02:01:12;58.07;;;32.23;;
35518;SDS011;21627;48.216;16.482;2023-12-20T02:03:40;66.93;;;30.87;;
35518;SDS011;21627;48.216;16.482;2023-12-20T02:06:09;57.63;;;32.17;;
35518;SDS011;21627;48.216;16.482;2023-12-20T02:08:36;48.80;;;29.60;;
35518;SDS011;21627;48.216;16.482;2023-12-20T02:11:03;53.13;;;30.70;;
35518;SDS011;21627;48.216;16.482;2023-12-20T02:13:31;69.40;;;31.00;;
35518;SDS011;21627;48.216;16.482;2023-12-20T02:15:59;101.50;;;31.73;;
35518;SDS011;21627;48.216;16.482;2023-12-20T02:18:27;72.23;;;30.10;;
35518;SDS011;21627;48.216;16.482;2023-12-20T02:20:55;120.90;;;30.37;;
35518;SDS011;21627;48.216;16.482;2023-12-20T02:23:22;129.03;;;30.90;;
35518;SDS011;21627;48.216;16.482;2023-12-20T02:25:49;75.00;;;28.60;;
35518;SDS011;21627;48.216;16.482;2023-12-20T02:28:17;83.77;;;31.03;;
35518;SDS011;21627;48.216;16.482;2023-12-20T02:30:44;91.53;;;29.40;;
35518;SDS011;21627;48.216;16.482;2023-12-20T02:33:12;246.23;;;33.77;;
35518;SDS011;21627;48.216;16.482;2023-12-20T02:35:40;90.57;;;30.20;;
35518;SDS011;21627;48.216;16.482;2023-12-20T02:38:07;104.80;;;33.77;;
35518;SDS011;21627;48.216;16.482;2023-12-20T02:40:34;101.90;;;31.83;;
35518;SDS011;21627;48.216;16.482;2023-12-20T02:43:01;151.67;;;35.20;;
35518;SDS011;21627;48.216;16.482;2023-12-20T02:45:29;50.17;;;29.67;;
35518;SDS011;21627;48.216;16.482;2023-12-20T02:47:56;104.13;;;30.93;;
35518;SDS011;21627;48.216;16.482;2023-12-20T02:50:23;80.30;;;32.70;;
35518;SDS011;21627;48.216;16.482;2023-12-20T02:52:51;99.40;;;32.47;;
35518;SDS011;21627;48.216;16.482;2023-12-20T02:55:18;60.63;;;31.83;;
35518;SDS011;21627;48.216;16.482;2023-12-20T02:57:45;97.17;;;33.10;;
35518;SDS011;21627;48.216;16.482;2023-12-20T03:00:13;54.40;;;31.30;;
35518;SDS011;21627;48.216;16.482;2023-12-20T03:02:40;63.33;;;30.43;;
35518;SDS011;21627;48.216;16.482;2023-12-20T03:05:07;63.37;;;32.83;;
35518;SDS011;21627;48.216;16.482;2023-12-20T03:07:36;84.60;;;32.57;;
35518;SDS011;21627;48.216;16.482;2023-12-20T03:10:04;68.33;;;32.27;;
35518;SDS011;21627;48.216;16.482;2023-12-20T03:12:45;60.67;;;31.57;;
35518;SDS011;21627;48.216;16.482;2023-12-20T03:15:13;55.13;;;31.23;;
35518;SDS011;21627;48.216;16.482;2023-12-20T03:17:40;91.30;;;32.07;;
35518;SDS011;21627;48.216;16.482;2023-12-20T03:20:07;71.27;;;31.83;;
35518;SDS011;21627;48.216;16.482;2023-12-20T03:22:35;73.53;;;32.47;;
35518;SDS011;21627;48.216;16.482;2023-12-20T03:25:02;54.87;;;30.17;;
35518;SDS011;21627;48.216;16.482;2023-12-20T03:27:30;56.27;;;31.43;;
35518;SDS011;21627;48.216;16.482;2023-12-20T03:29:57;64.27;;;31.07;;
35518;SDS011;21627;48.216;16.482;2023-12-20T03:32:24;55.73;;;30.80;;
35518;SDS011;21627;48.216;16.482;2023-12-20T03:34:51;55.53;;;29.80;;
35518;SDS011;21627;48.216;16.482;2023-12-20T03:37:19;48.23;;;29.73;;
35518;SDS011;21627;48.216;16.482;2023-12-20T03:39:46;56.70;;;31.17;;
35518;SDS011;21627;48.216;16.482;2023-12-20T03:42:13;57.03;;;29.50;;
35518;SDS011;21627;48.216;16.482;2023-12-20T03:44:40;56.80;;;30.33;;
35518;SDS011;21627;48.216;16.482;2023-12-20T03:47:08;52.23;;;31.50;;
35518;SDS011;21627;48.216;16.482;2023-12-20T03:49:35;48.70;;;30.40;;
35518;SDS011;21627;48.216;16.482;2023-12-20T03:52:04;54.57;;;30.13;;
35518;SDS011;21627;48.216;16.482;2023-12-20T03:54:31;51.37;;;29.53;;
35518;SDS011;21627;48.216;16.482;2023-12-20T03:56:59;45.00;;;27.77;;
35518;SDS011;21627;48.216;16.482;2023-12-20T03:59:26;58.47;;;29.60;;
35518;SDS011;21627;48.216;16.482;2023-12-20T04:01:53;45.00;;;28.50;;
35518;SDS011;21627;48.216;16.482;2023-12-20T04:04:21;67.17;;;30.87;;
35518;SDS011;21627;48.216;16.482;2023-12-20T04:06:48;63.27;;;28.27;;
35518;SDS011;21627;48.216;16.482;2023-12-20T04:09:15;47.60;;;27.50;;
35518;SDS011;21627;48.216;16.482;2023-12-20T04:11:42;51.00;;;30.23;;
35518;SDS011;21627;48.216;16.482;2023-12-20T04:14:09;44.47;;;27.83;;
35518;SDS011;21627;48.216;16.482;2023-12-20T04:16:36;45.20;;;27.97;;
35518;SDS011;21627;48.216;16.482;2023-12-20T04:19:05;48.60;;;28.23;;
35518;SDS011;21627;48.216;16.482;2023-12-20T04:21:32;46.43;;;27.53;;
35518;SDS011;21627;48.216;16.482;2023-12-20T04:23:59;42.83;;;27.57;;
35518;SDS011;21627;48.216;16.482;2023-12-20T04:26:26;44.77;;;25.90;;
35518;SDS011;21627;48.216;16.482;2023-12-20T04:28:53;37.83;;;23.80;;
35518;SDS011;21627;48.216;16.482;2023-12-20T04:31:20;45.97;;;25.73;;
35518;SDS011;21627;48.216;16.482;2023-12-20T04:33:48;38.73;;;23.83;;
35518;SDS011;21627;48.216;16.482;2023-12-20T04:36:15;36.37;;;23.43;;
35518;SDS011;21627;48.216;16.482;2023-12-20T04:38:42;36.90;;;23.53;;
35518;SDS011;21627;48.216;16.482;2023-12-20T04:41:09;33.17;;;22.07;;
35518;SDS011;21627;48.216;16.482;2023-12-20T04:43:36;32.70;;;22.33;;
35518;SDS011;21627;48.216;16.482;2023-12-20T04:46:03;32.77;;;22.67;;
35518;SDS011;21627;48.216;16.482;2023-12-20T04:48:31;37.60;;;22.90;;
35518;SDS011;21627;48.216;16.482;2023-12-20T04:50:58;33.90;;;22.97;;
35518;SDS011;21627;48.216;16.482;2023-12-20T04:53:25;34.03;;;22.93;;
35518;SDS011;21627;48.216;16.482;2023-12-20T04:55:52;36.10;;;23.17;;
35518;SDS011;21627;48.216;16.482;2023-12-20T04:58:19;40.47;;;24.17;;
35518;SDS011;21627;48.216;16.482;2023-12-20T05:00:47;34.30;;;22.80;;
35518;SDS011;21627;48.216;16.482;2023-12-20T05:03:14;34.40;;;22.37;;
35518;SDS011;21627;48.216;16.482;2023-12-20T05:05:41;37.63;;;22.93;;
35518;SDS011;21627;48.216;16.482;2023-12-20T05:08:08;36.27;;;23.70;;
35518;SDS011;21627;48.216;16.482;2023-12-20T05:10:35;34.40;;;23.17;;
35518;SDS011;21627;48.216;16.482;2023-12-20T05:13:03;34.53;;;21.87;;
35518;SDS011;21627;48.216;16.482;2023-12-20T05:15:30;35.00;;;22.80;;
35518;SDS011;21627;48.216;16.482;2023-12-20T05:17:57;34.67;;;21.97;;
35518;SDS011;21627;48.216;16.482;2023-12-20T05:20:24;33.73;;;22.13;;
35518;SDS011;21627;48.216;16.482;2023-12-20T05:22:52;37.83;;;21.90;;
35518;SDS011;21627;48.216;16.482;2023-12-20T05:25:19;37.20;;;23.57;;
35518;SDS011;21627;48.216;16.482;2023-12-20T05:27:46;37.80;;;23.20;;
35518;SDS011;21627;48.216;16.482;2023-12-20T05:30:14;37.73;;;22.63;;
35518;SDS011;21627;48.216;16.482;2023-12-20T05:32:41;35.47;;;23.50;;
35518;SDS011;21627;48.216;16.482;2023-12-20T05:35:08;36.17;;;23.20;;
35518;SDS011;21627;48.216;16.482;2023-12-20T05:37:36;35.10;;;22.90;;
35518;SDS011;21627;48.216;16.482;2023-12-20T05:40:03;36.53;;;22.77;;
35518;SDS011;21627;48.216;16.482;2023-12-20T05:42:32;40.13;;;24.97;;
35518;SDS011;21627;48.216;16.482;2023-12-20T05:44:59;37.77;;;23.57;;
35518;SDS011;21627;48.216;16.482;2023-12-20T05:47:26;42.53;;;24.03;;
35518;SDS011;21627;48.216;16.482;2023-12-20T05:49:53;37.47;;;23.47;;
35518;SDS011;21627;48.216;16.482;2023-12-20T05:52:21;39.27;;;23.13;;
35518;SDS011;21627;48.216;16.482;2023-12-20T05:54:48;36.63;;;22.63;;
35518;SDS011;21627;48.216;16.482;2023-12-20T05:57:15;42.90;;;23.47;;
35518;SDS011;21627;48.216;16.482;2023-12-20T05:59:42;39.67;;;23.80;;
35518;SDS011;21627;48.216;16.482;2023-12-20T06:02:09;41.37;;;22.40;;
35518;SDS011;21627;48.216;16.482;2023-12-20T06:04:37;35.20;;;22.73;;
35518;SDS011;21627;48.216;16.482;2023-12-20T06:07:08;37.80;;;23.60;;
35518;SDS011;21627;48.216;16.482;2023-12-20T06:09:38;39.50;;;23.00;;
35518;SDS011;21627;48.216;16.482;2023-12-20T06:12:05;38.30;;;23.83;;
35518;SDS011;21627;48.216;16.482;2023-12-20T06:14:33;36.90;;;23.70;;
35518;SDS011;21627;48.216;16.482;2023-12-20T06:17:02;39.53;;;24.37;;
35518;SDS011;21627;48.216;16.482;2023-12-20T06:19:29;35.23;;;23.23;;
35518;SDS011;21627;48.216;16.482;2023-12-20T06:21:57;46.27;;;23.17;;
35518;SDS011;21627;48.216;16.482;2023-12-20T06:24:24;41.90;;;24.93;;
35518;SDS011;21627;48.216;16.482;2023-12-20T06:26:54;39.93;;;23.43;;
35518;SDS011;21627;48.216;16.482;2023-12-20T06:29:21;39.60;;;24.10;;
35518;SDS011;21627;48.216;16.482;2023-12-20T06:31:49;42.60;;;24.63;;
35518;SDS011;21627;48.216;16.482;2023-12-20T06:34:16;50.93;;;27.07;;
35518;SDS011;21627;48.216;16.482;2023-12-20T06:36:43;44.07;;;26.10;;
35518;SDS011;21627;48.216;16.482;2023-12-20T06:39:11;43.63;;;26.43;;
35518;SDS011;21627;48.216;16.482;2023-12-20T06:41:39;46.20;;;26.50;;
35518;SDS011;21627;48.216;16.482;2023-12-20T06:44:06;45.37;;;26.57;;
35518;SDS011;21627;48.216;16.482;2023-12-20T06:46:34;40.97;;;24.73;;
35518;SDS011;21627;48.216;16.482;2023-12-20T06:49:02;42.97;;;25.93;;
35518;SDS011;21627;48.216;16.482;2023-12-20T06:51:29;41.23;;;26.20;;
35518;SDS011;21627;48.216;16.482;2023-12-20T06:53:57;46.50;;;26.40;;
35518;SDS011;21627;48.216;16.482;2023-12-20T06:56:24;43.93;;;26.30;;
35518;SDS011;21627;48.216;16.482;2023-12-20T06:58:51;41.60;;;24.73;;
35518;SDS011;21627;48.216;16.482;2023-12-20T07:01:18;36.83;;;22.70;;
35518;SDS011;21627;48.216;16.482;2023-12-20T07:03:45;37.67;;;21.00;;
35518;SDS011;21627;48.216;16.482;2023-12-20T07:06:13;35.93;;;20.60;;
35518;SDS011;21627;48.216;16.482;2023-12-20T07:08:43;27.07;;;16.00;;
35518;SDS011;21627;48.216;16.482;2023-12-20T07:11:10;30.70;;;17.23;;
35518;SDS011;21627;48.216;16.482;2023-12-20T07:13:37;17.73;;;10.40;;
35518;SDS011;21627;48.216;16.482;2023-12-20T07:16:05;22.97;;;11.30;;
35518;SDS011;21627;48.216;16.482;2023-12-20T07:18:32;14.17;;;7.87;;
35518;SDS011;21627;48.216;16.482;2023-12-20T07:21:00;13.30;;;7.00;;
35518;SDS011;21627;48.216;16.482;2023-12-20T07:23:27;8.73;;;5.63;;
35518;SDS011;21627;48.216;16.482;2023-12-20T07:25:54;12.20;;;6.13;;
35518;SDS011;21627;48.216;16.482;2023-12-20T07:28:21;11.20;;;5.57;;
35518;SDS011;21627;48.216;16.482;2023-12-20T07:30:48;9.07;;;5.07;;
35518;SDS011;21627;48.216;16.482;2023-12-20T07:33:15;10.03;;;5.30;;
35518;SDS011;21627;48.216;16.482;2023-12-20T07:35:43;9.00;;;5.30;;
35518;SDS011;21627;48.216;16.482;2023-12-20T07:38:12;8.70;;;4.57;;
35518;SDS011;21627;48.216;16.482;2023-12-20T07:40:39;11.40;;;5.37;;
35518;SDS011;21627;48.216;16.482;2023-12-20T07:43:06;8.00;;;5.00;;
35518;SDS011;21627;48.216;16.482;2023-12-20T07:45:33;8.30;;;5.43;;
35518;SDS011;21627;48.216;16.482;2023-12-20T07:48:00;7.40;;;4.47;;
35518;SDS011;21627;48.216;16.482;2023-12-20T07:50:28;9.13;;;4.53;;
35518;SDS011;21627;48.216;16.482;2023-12-20T07:52:55;8.33;;;5.10;;
35518;SDS011;21627;48.216;16.482;2023-12-20T07:55:23;10.30;;;5.30;;
35518;SDS011;21627;48.216;16.482;2023-12-20T07:57:50;13.73;;;5.10;;
35518;SDS011;21627;48.216;16.482;2023-12-20T08:00:17;8.50;;;5.10;;
35518;SDS011;21627;48.216;16.482;2023-12-20T08:02:45;6.77;;;4.50;;
35518;SDS011;21627;48.216;16.482;2023-12-20T08:05:12;8.33;;;4.93;;
35518;SDS011;21627;48.216;16.482;2023-12-20T08:07:41;8.57;;;4.90;;
35518;SDS011;21627;48.216;16.482;2023-12-20T08:10:09;13.63;;;4.27;;
35518;SDS011;21627;48.216;16.482;2023-12-20T08:12:37;6.80;;;4.35;;
35518;SDS011;21627;48.216;16.482;2023-12-20T08:15:06;6.13;;;3.53;;
35518;SDS011;21627;48.216;16.482;2023-12-20T08:17:33;7.73;;;4.00;;
35518;SDS011;21627;48.216;16.482;2023-12-20T08:20:00;8.05;;;4.13;;
35518;SDS011;21627;48.216;16.482;2023-12-20T08:22:28;10.10;;;3.33;;
35518;SDS011;21627;48.216;16.482;2023-12-20T08:24:55;4.15;;;2.80;;
35518;SDS011;21627;48.216;16.482;2023-12-20T08:27:23;6.07;;;3.08;;
35518;SDS011;21627;48.216;16.482;2023-12-20T08:29:50;8.43;;;3.10;;
35518;SDS011;21627;48.216;16.482;2023-12-20T08:32:17;8.25;;;2.92;;
35518;SDS011;21627;48.216;16.482;2023-12-20T08:34:44;4.72;;;3.05;;
35518;SDS011;21627;48.216;16.482;2023-12-20T08:37:11;5.05;;;2.80;;
35518;SDS011;21627;48.216;16.482;2023-12-20T08:39:38;7.78;;;2.97;;
35518;SDS011;21627;48.216;16.482;2023-12-20T08:42:10;4.00;;;2.75;;
35518;SDS011;21627;48.216;16.482;2023-12-20T08:44:37;8.00;;;3.53;;
35518;SDS011;21627;48.216;16.482;2023-12-20T08:47:04;7.32;;;4.38;;
35518;SDS011;21627;48.216;16.482;2023-12-20T08:49:31;6.82;;;3.38;;
35518;SDS011;21627;48.216;16.482;2023-12-20T08:51:59;5.00;;;3.15;;
35518;SDS011;21627;48.216;16.482;2023-12-20T08:54:26;10.95;;;3.28;;
35518;SDS011;21627;48.216;16.482;2023-12-20T08:56:53;5.00;;;2.85;;
35518;SDS011;21627;48.216;16.482;2023-12-20T08:59:20;6.15;;;3.50;;
35518;SDS011;21627;48.216;16.482;2023-12-20T09:01:47;7.55;;;3.20;;
35518;SDS011;21627;48.216;16.482;2023-12-20T09:04:20;8.60;;;3.28;;
35518;SDS011;21627;48.216;16.482;2023-12-20T09:06:48;7.22;;;3.53;;
35518;SDS011;21627;48.216;16.482;2023-12-20T09:09:15;6.35;;;3.60;;
35518;SDS011;21627;48.216;16.482;2023-12-20T09:11:42;4.90;;;2.90;;
35518;SDS011;21627;48.216;16.482;2023-12-20T09:14:12;8.80;;;3.45;;
35518;SDS011;21627;48.216;16.482;2023-12-20T09:16:39;4.18;;;3.05;;
35518;SDS011;21627;48.216;16.482;2023-12-20T09:19:06;8.43;;;3.10;;
35518;SDS011;21627;48.216;16.482;2023-12-20T09:21:34;6.22;;;3.50;;
35518;SDS011;21627;48.216;16.482;2023-12-20T09:24:01;9.07;;;3.28;;
35518;SDS011;21627;48.216;16.482;2023-12-20T09:26:28;4.85;;;2.90;;
35518;SDS011;21627;48.216;16.482;2023-12-20T09:28:55;5.72;;;3.35;;
35518;SDS011;21627;48.216;16.482;2023-12-20T09:31:22;5.03;;;2.70;;
35518;SDS011;21627;48.216;16.482;2023-12-20T09:33:49;3.88;;;2.50;;
35518;SDS011;21627;48.216;16.482;2023-12-20T09:36:17;3.67;;;2.05;;
35518;SDS011;21627;48.216;16.482;2023-12-20T09:38:44;4.57;;;2.63;;
35518;SDS011;21627;48.216;16.482;2023-12-20T09:41:12;2.67;;;2.00;;
35518;SDS011;21627;48.216;16.482;2023-12-20T09:43:41;2.10;;;1.73;;
35518;SDS011;21627;48.216;16.482;2023-12-20T09:46:08;2.45;;;1.77;;
35518;SDS011;21627;48.216;16.482;2023-12-20T09:48:38;3.58;;;2.10;;
35518;SDS011;21627;48.216;16.482;2023-12-20T09:51:07;4.07;;;1.83;;
35518;SDS011;21627;48.216;16.482;2023-12-20T09:53:34;4.15;;;1.70;;
35518;SDS011;21627;48.216;16.482;2023-12-20T09:56:03;2.35;;;1.70;;
35518;SDS011;21627;48.216;16.482;2023-12-20T09:58:32;2.75;;;2.05;;
35518;SDS011;21627;48.216;16.482;2023-12-20T10:00:59;2.25;;;2.00;;
35518;SDS011;21627;48.216;16.482;2023-12-20T10:03:28;2.70;;;1.83;;
35518;SDS011;21627;48.216;16.482;2023-12-20T10:05:57;4.20;;;2.50;;
35518;SDS011;21627;48.216;16.482;2023-12-20T10:08:25;3.17;;;2.10;;
35518;SDS011;21627;48.216;16.482;2023-12-20T10:10:52;5.13;;;2.08;;
35518;SDS011;21627;48.216;16.482;2023-12-20T10:13:19;4.55;;;2.13;;
35518;SDS011;21627;48.216;16.482;2023-12-20T10:15:47;4.53;;;2.20;;
35518;SDS011;21627;48.216;16.482;2023-12-20T10:18:16;5.55;;;2.50;;
35518;SDS011;21627;48.216;16.482;2023-12-20T10:20:44;3.60;;;2.30;;
35518;SDS011;21627;48.216;16.482;2023-12-20T10:23:12;3.47;;;2.15;;
35518;SDS011;21627;48.216;16.482;2023-12-20T10:25:40;3.47;;;2.20;;
35518;SDS011;21627;48.216;16.482;2023-12-20T10:30:40;4.05;;;2.30;;
35518;SDS011;21627;48.216;16.482;2023-12-20T10:33:09;3.42;;;2.70;;
35518;SDS011;21627;48.216;16.482;2023-12-20T10:35:38;3.03;;;2.25;;
35518;SDS011;21627;48.216;16.482;2023-12-20T10:38:11;3.78;;;3.00;;
35518;SDS011;21627;48.216;16.482;2023-12-20T10:40:41;3.40;;;2.60;;
35518;SDS011;21627;48.216;16.482;2023-12-20T10:43:09;7.75;;;2.60;;
35518;SDS011;21627;48.216;16.482;2023-12-20T10:45:37;3.13;;;2.42;;
35518;SDS011;21627;48.216;16.482;2023-12-20T10:48:05;3.65;;;2.55;;
35518;SDS011;21627;48.216;16.482;2023-12-20T10:50:33;4.30;;;2.38;;
35518;SDS011;21627;48.216;16.482;2023-12-20T10:53:05;3.78;;;2.72;;
35518;SDS011;21627;48.216;16.482;2023-12-20T10:55:33;4.10;;;2.47;;
35518;SDS011;21627;48.216;16.482;2023-12-20T10:58:01;3.03;;;2.20;;
35518;SDS011;21627;48.216;16.482;2023-12-20T11:00:39;5.03;;;2.35;;
35518;SDS011;21627;48.216;16.482;2023-12-20T11:03:08;3.57;;;2.63;;
35518;SDS011;21627;48.216;16.482;2023-12-20T11:14:52;2.95;;;2.40;;
35518;SDS011;21627;48.216;16.482;2023-12-20T11:17:26;2.80;;;2.10;;
35518;SDS011;21627;48.216;16.482;2023-12-20T11:22:25;2.75;;;2.35;;
35518;SDS011;21627;48.216;16.482;2023-12-20T11:24:54;3.63;;;2.33;;
35518;SDS011;21627;48.216;16.482;2023-12-20T11:27:31;2.40;;;2.08;;
35518;SDS011;21627;48.216;16.482;2023-12-20T11:29:58;3.38;;;2.40;;
35518;SDS011;21627;48.216;16.482;2023-12-20T11:32:28;3.30;;;2.20;;
35518;SDS011;21627;48.216;16.482;2023-12-20T11:34:59;2.97;;;2.15;;
35518;SDS011;21627;48.216;16.482;2023-12-20T11:37:37;3.13;;;2.50;;
35518;SDS011;21627;48.216;16.482;2023-12-20T11:40:16;3.92;;;2.65;;
35518;SDS011;21627;48.216;16.482;2023-12-20T11:42:45;2.50;;;2.25;;
35518;SDS011;21627;48.216;16.482;2023-12-20T11:45:17;2.60;;;2.25;;
35518;SDS011;21627;48.216;16.482;2023-12-20T11:47:48;4.78;;;2.40;;
35518;SDS011;21627;48.216;16.482;2023-12-20T11:50:18;3.25;;;2.35;;
35518;SDS011;21627;48.216;16.482;2023-12-20T11:52:47;3.28;;;2.30;;
35518;SDS011;21627;48.216;16.482;2023-12-20T11:55:15;2.72;;;2.20;;
35518;SDS011;21627;48.216;16.482;2023-12-20T11:57:43;3.15;;;2.08;;
35518;SDS011;21627;48.216;16.482;2023-12-20T12:00:12;2.20;;;1.90;;
35518;SDS011;21627;48.216;16.482;2023-12-20T12:02:41;4.60;;;2.20;;
35518;SDS011;21627;48.216;16.482;2023-12-20T12:05:10;5.63;;;1.88;;
35518;SDS011;21627;48.216;16.482;2023-12-20T12:07:37;4.32;;;2.15;;
35518;SDS011;21627;48.216;16.482;2023-12-20T12:10:05;4.47;;;2.10;;
35518;SDS011;21627;48.216;16.482;2023-12-20T12:12:34;2.83;;;2.30;;
35518;SDS011;21627;48.216;16.482;2023-12-20T12:15:02;2.53;;;1.98;;
35518;SDS011;21627;48.216;16.482;2023-12-20T12:17:29;1.90;;;1.67;;
35518;SDS011;21627;48.216;16.482;2023-12-20T12:20:03;4.47;;;1.60;;
35518;SDS011;21627;48.216;16.482;2023-12-20T12:22:32;3.55;;;1.73;;
35518;SDS011;21627;48.216;16.482;2023-12-20T12:25:09;2.50;;;1.95;;
35518;SDS011;21627;48.216;16.482;2023-12-20T12:27:41;2.83;;;1.80;;
35518;SDS011;21627;48.216;16.482;2023-12-20T12:30:09;3.05;;;2.00;;
35518;SDS011;21627;48.216;16.482;2023-12-20T12:32:39;2.95;;;1.48;;
35518;SDS011;21627;48.216;16.482;2023-12-20T12:35:07;1.67;;;1.38;;
35518;SDS011;21627;48.216;16.482;2023-12-20T12:37:37;1.73;;;1.60;;
35518;SDS011;21627;48.216;16.482;2023-12-20T12:40:07;1.75;;;1.40;;
35518;SDS011;21627;48.216;16.482;2023-12-20T12:42:43;2.70;;;1.67;;
35518;SDS011;21627;48.216;16.482;2023-12-20T12:45:11;2.58;;;1.73;;
35518;SDS011;21627;48.216;16.482;2023-12-20T12:47:40;2.10;;;1.52;;
35518;SDS011;21627;48.216;16.482;2023-12-20T12:50:08;1.85;;;1.30;;
35518;SDS011;21627;48.216;16.482;2023-12-20T12:52:36;2.08;;;1.50;;
35518;SDS011;21627;48.216;16.482;2023-12-20T12:55:04;3.17;;;1.55;;
35518;SDS011;21627;48.216;16.482;2023-12-20T12:57:32;1.58;;;1.42;;
35518;SDS011;21627;48.216;16.482;2023-12-20T13:00:00;2.58;;;1.40;;
35518;SDS011;21627;48.216;16.482;2023-12-20T13:02:29;2.50;;;1.55;;
35518;SDS011;21627;48.216;16.482;2023-12-20T13:04:57;1.65;;;1.33;;
35518;SDS011;21627;48.216;16.482;2023-12-20T13:07:24;3.63;;;1.40;;
35518;SDS011;21627;48.216;16.482;2023-12-20T13:09:51;1.85;;;1.42;;
35518;SDS011;21627;48.216;16.482;2023-12-20T13:12:19;1.83;;;1.60;;
35518;SDS011;21627;48.216;16.482;2023-12-20T13:14:46;1.60;;;1.38;;
35518;SDS011;21627;48.216;16.482;2023-12-20T13:17:16;1.38;;;1.23;;
35518;SDS011;21627;48.216;16.482;2023-12-20T13:19:43;2.78;;;1.30;;
35518;SDS011;21627;48.216;16.482;2023-12-20T13:22:10;1.30;;;1.15;;
35518;SDS011;21627;48.216;16.482;2023-12-20T13:24:37;3.88;;;1.77;;
35518;SDS011;21627;48.216;16.482;2023-12-20T13:27:04;1.88;;;1.48;;
35518;SDS011;21627;48.216;16.482;2023-12-20T13:29:32;2.13;;;1.60;;
35518;SDS011;21627;48.216;16.482;2023-12-20T13:32:00;1.60;;;1.40;;
35518;SDS011;21627;48.216;16.482;2023-12-20T13:34:27;5.25;;;1.52;;
35518;SDS011;21627;48.216;16.482;2023-12-20T13:36:55;2.50;;;1.65;;
35518;SDS011;21627;48.216;16.482;2023-12-20T13:39:23;2.10;;;1.40;;
35518;SDS011;21627;48.216;16.482;2023-12-20T13:41:50;1.60;;;1.50;;
35518;SDS011;21627;48.216;16.482;2023-12-20T13:44:17;2.58;;;1.40;;
35518;SDS011;21627;48.216;16.482;2023-12-20T13:46:44;2.45;;;1.45;;
35518;SDS011;21627;48.216;16.482;2023-12-20T13:49:13;1.83;;;1.42;;
35518;SDS011;21627;48.216;16.482;2023-12-20T13:51:40;1.88;;;1.33;;
35518;SDS011;21627;48.216;16.482;2023-12-20T13:54:07;1.85;;;1.50;;
35518;SDS011;21627;48.216;16.482;2023-12-20T13:56:34;2.15;;;1.52;;
35518;SDS011;21627;48.216;16.482;2023-12-20T13:59:13;5.43;;;1.60;;
35518;SDS011;21627;48.216;16.482;2023-12-20T14:01:41;2.15;;;1.73;;
35518;SDS011;21627;48.216;16.482;2023-12-20T14:04:08;2.50;;;1.50;;
35518;SDS011;21627;48.216;16.482;2023-12-20T14:06:57;1.83;;;1.23;;
35518;SDS011;21627;48.216;16.482;2023-12-20T14:09:24;2.13;;;1.30;;
35518;SDS011;21627;48.216;16.482;2023-12-20T14:11:51;1.52;;;1.30;;
35518;SDS011;21627;48.216;16.482;2023-12-20T14:14:18;2.03;;;1.40;;
35518;SDS011;21627;48.216;16.482;2023-12-20T14:16:45;2.30;;;1.00;;
35518;SDS011;21627;48.216;16.482;2023-12-20T14:19:13;2.35;;;1.60;;
35518;SDS011;21627;48.216;16.482;2023-12-20T14:21:40;2.65;;;1.40;;
35518;SDS011;21627;48.216;16.482;2023-12-20T14:24:07;1.80;;;1.40;;
35518;SDS011;21627;48.216;16.482;2023-12-20T14:26:34;2.28;;;1.27;;
35518;SDS011;21627;48.216;16.482;2023-12-20T14:29:01;2.22;;;1.45;;
35518;SDS011;21627;48.216;16.482;2023-12-20T14:31:30;1.50;;;1.10;;
35518;SDS011;21627;48.216;16.482;2023-12-20T14:33:57;1.63;;;1.23;;
35518;SDS011;21627;48.216;16.482;2023-12-20T14:36:25;2.28;;;1.40;;
35518;SDS011;21627;48.216;16.482;2023-12-20T14:38:53;1.90;;;1.50;;